YMT weather

Chapais Airport
Chibougamau, Quebec, Canada

Public forecast

Using degrees Celsius for public forecast. Weather courtesy of forecast.io.

METAR (pilot weather report)

Retrieved 2019/05/20 01:00 UTC (51 minutes ago):

CYMT 200100Z AUTO 08005KT 9SM BKN100 OVC120 05/02 A2990 RMK SLP142

TAF (pilot weather forecast)

Forecast is more than 6 hours old.

Retrieved 2019/05/19 18:00 UTC (8 hours ago):

TAF CYMT 191738Z 1918/1924 01005KT P6SM BKN025 TEMPO 1918/1924 BKN020 RMK FCST BASED ON AUTO OBS. NXT FCST WILL BE ISSUED AT 201145Z